Time;durP1;ratioP1;P1;durP2;ratioP2;P2;SDS_P1;SDS_P2;PMS_P1;PMS_P2;Temp;Humidity;BMP_temperature;BMP_pressure;BME280_temperature;BME280_humidity;BME280_pressure;Samples;Min_cycle;Max_cycle;Signal;HPM_P1;HPM_P2
2022/01/19 00:01:32;;;;;;;68.97;22.73;;;;;;;;;;6182597;28;20117;-61
2022/01/19 00:04:32;;;;;;;81.85;22.40;;;;;;;;;;6184862;28;20108;-61
2022/01/19 00:07:33;;;;;;;77.47;24.15;;;;;;;;;;6183907;28;20141;-61
2022/01/19 00:10:34;;;;;;;71.25;23.05;;;;;;;;;;6182977;28;20046;-61
2022/01/19 00:13:35;;;;;;;74.65;24.00;;;;;;;;;;6176893;28;20138;-61
2022/01/19 00:16:36;;;;;;;82.68;24.42;;;;;;;;;;6186382;28;20046;-61
2022/01/19 00:19:36;;;;;;;70.35;23.42;;;;;;;;;;6185336;28;20137;-61
2022/01/19 00:22:37;;;;;;;76.00;23.65;;;;;;;;;;6183087;28;20050;-61
2022/01/19 00:25:38;;;;;;;80.07;24.80;;;;;;;;;;6186797;28;20135;-61
2022/01/19 00:28:39;;;;;;;71.82;23.15;;;;;;;;;;6182895;28;20348;-62
2022/01/19 00:31:39;;;;;;;76.30;22.27;;;;;;;;;;6182180;28;20057;-61
2022/01/19 00:34:40;;;;;;;81.65;25.02;;;;;;;;;;6182154;28;20190;-60
2022/01/19 00:37:42;;;;;;;81.32;24.90;;;;;;;;;;6184230;28;20082;-60
2022/01/19 00:40:44;;;;;;;79.13;24.70;;;;;;;;;;6181924;28;20061;-61
2022/01/19 00:43:44;;;;;;;76.28;24.95;;;;;;;;;;6184226;28;20450;-60
2022/01/19 00:46:45;;;;;;;72.32;23.20;;;;;;;;;;6181292;28;20054;-61
2022/01/19 00:49:46;;;;;;;75.60;24.45;;;;;;;;;;6180240;28;20038;-61
2022/01/19 00:52:46;;;;;;;79.75;25.70;;;;;;;;;;6190504;28;20695;-61
2022/01/19 00:55:47;;;;;;;79.63;25.63;;;;;;;;;;6192791;28;20089;-61
2022/01/19 00:58:48;;;;;;;87.85;25.20;;;;;;;;;;6193100;28;20081;-61
2022/01/19 01:01:48;;;;;;;78.95;25.40;;;;;;;;;;6183694;28;20118;-60
2022/01/19 01:04:49;;;;;;;84.82;25.90;;;;;;;;;;6182175;28;20058;-61
2022/01/19 01:07:50;;;;;;;68.25;24.23;;;;;;;;;;6180810;28;20057;-61
2022/01/19 01:10:51;;;;;;;77.93;23.80;;;;;;;;;;6181264;28;20050;-60
2022/01/19 01:17:11;;;;;;;68.22;24.73;;;;;;;;;;6181776;28;20070;-61
2022/01/19 01:20:12;;;;;;;70.60;24.10;;;;;;;;;;6177052;28;20046;-60
2022/01/19 01:23:13;;;;;;;84.57;24.58;;;;;;;;;;6179785;28;20074;-61
2022/01/19 01:26:14;;;;;;;71.53;23.95;;;;;;;;;;6182739;28;20089;-61
2022/01/19 01:29:14;;;;;;;80.88;24.48;;;;;;;;;;6180520;28;20050;-61
2022/01/19 01:32:15;;;;;;;79.30;25.33;;;;;;;;;;6179478;28;20050;-61
2022/01/19 01:35:16;;;;;;;78.47;23.88;;;;;;;;;;6181145;28;20062;-60
2022/01/19 01:38:17;;;;;;;70.07;23.13;;;;;;;;;;6180013;28;20056;-61
2022/01/19 01:41:17;;;;;;;74.40;23.27;;;;;;;;;;6181242;28;20057;-61
2022/01/19 01:44:18;;;;;;;71.57;23.02;;;;;;;;;;6179639;28;20498;-60
2022/01/19 01:47:20;;;;;;;73.40;23.55;;;;;;;;;;6181505;28;20410;-61
2022/01/19 01:53:40;;;;;;;68.75;22.77;;;;;;;;;;6181618;28;20120;-61
2022/01/19 01:56:41;;;;;;;71.22;21.73;;;;;;;;;;6182457;28;20050;-61
2022/01/19 01:59:41;;;;;;;71.65;23.35;;;;;;;;;;6179525;28;20405;-61
2022/01/19 02:02:43;;;;;;;71.63;22.67;;;;;;;;;;6182672;28;20129;-61
2022/01/19 02:09:16;;;;;;;69.05;22.20;;;;;;;;;;6175542;28;20042;-60
2022/01/19 02:15:52;;;;;;;79.22;23.05;;;;;;;;;;6182877;28;20042;-61
2022/01/19 02:22:13;;;;;;;69.30;21.98;;;;;;;;;;6177428;28;20054;-60
2022/01/19 02:25:13;;;;;;;67.75;21.80;;;;;;;;;;6177477;28;20050;-61
2022/01/19 02:41:28;;;;;;;77.82;23.55;;;;;;;;;;6180518;28;20460;-62
2022/01/19 02:51:12;;;;;;;66.45;20.98;;;;;;;;;;6178477;28;20092;-62
2022/01/19 02:54:18;;;;;;;68.05;22.00;;;;;;;;;;6180280;28;20085;-62
2022/01/19 02:57:24;;;;;;;56.30;20.15;;;;;;;;;;6176579;28;20101;-62
2022/01/19 03:10:18;;;;;;;58.10;19.25;;;;;;;;;;6182344;28;20136;-61
2022/01/19 03:13:18;;;;;;;53.15;19.00;;;;;;;;;;6181569;28;20054;-62
2022/01/19 03:16:20;;;;;;;56.17;17.70;;;;;;;;;;6178685;28;20082;-62
2022/01/19 03:19:20;;;;;;;62.88;20.48;;;;;;;;;;6183494;28;20050;-62
2022/01/19 03:22:27;;;;;;;59.85;19.23;;;;;;;;;;6184547;28;20541;-62
2022/01/19 03:25:28;;;;;;;60.65;20.48;;;;;;;;;;6180499;28;20050;-62
2022/01/19 03:28:29;;;;;;;61.05;18.67;;;;;;;;;;6186853;28;20474;-61
2022/01/19 03:31:29;;;;;;;61.53;19.40;;;;;;;;;;6186596;28;20125;-61
2022/01/19 03:34:30;;;;;;;50.25;18.80;;;;;;;;;;6179217;28;20055;-62
2022/01/19 03:37:31;;;;;;;56.67;18.67;;;;;;;;;;6171673;28;20136;-62
2022/01/19 03:40:32;;;;;;;57.58;17.98;;;;;;;;;;6178779;28;20382;-62
2022/01/19 03:43:32;;;;;;;56.80;18.45;;;;;;;;;;6183359;28;20477;-62
2022/01/19 03:46:34;;;;;;;57.60;19.67;;;;;;;;;;6182600;28;20117;-62
2022/01/19 03:49:35;;;;;;;57.40;18.85;;;;;;;;;;6177747;28;20050;-61
2022/01/19 03:52:36;;;;;;;55.88;17.90;;;;;;;;;;6181050;28;20046;-62
2022/01/19 03:55:36;;;;;;;59.85;19.02;;;;;;;;;;6186561;28;20061;-62
2022/01/19 03:58:37;;;;;;;56.70;17.48;;;;;;;;;;6184782;28;20042;-62
2022/01/19 04:01:38;;;;;;;53.85;18.75;;;;;;;;;;6185220;28;20253;-61
2022/01/19 04:04:51;;;;;;;62.90;18.33;;;;;;;;;;6181625;28;20051;-61
2022/01/19 04:07:51;;;;;;;63.10;17.92;;;;;;;;;;6185103;28;20073;-61
2022/01/19 04:10:52;;;;;;;59.33;17.30;;;;;;;;;;6184165;28;20141;-62
2022/01/19 04:17:03;;;;;;;52.85;18.50;;;;;;;;;;6184655;28;20054;-62
2022/01/19 04:20:04;;;;;;;51.78;16.95;;;;;;;;;;6185565;28;20475;-62
2022/01/19 04:23:05;;;;;;;46.50;18.38;;;;;;;;;;6186877;28;20046;-62
2022/01/19 04:26:06;;;;;;;50.35;17.70;;;;;;;;;;6183346;28;20089;-62
2022/01/19 04:29:06;;;;;;;52.25;17.42;;;;;;;;;;6176487;28;20130;-61
2022/01/19 04:32:14;;;;;;;50.45;16.65;;;;;;;;;;6181081;28;20405;-61
2022/01/19 04:35:21;;;;;;;49.83;17.02;;;;;;;;;;6181356;28;20103;-61
2022/01/19 05:07:26;;;;;;;52.03;17.23;;;;;;;;;;6185258;28;20051;-61
2022/01/19 05:13:40;;;;;;;;;;;;;;;;;;6179245;28;20054;-61
2022/01/19 05:16:40;;;;;;;50.95;18.08;;;;;;;;;;6179437;28;20017;-61
2022/01/19 05:19:41;;;;;;;49.70;17.25;;;;;;;;;;6180928;28;20046;-62
2022/01/19 05:22:41;;;;;;;49.65;17.98;;;;;;;;;;6182450;28;20133;-61
2022/01/19 05:25:43;;;;;;;54.30;18.98;;;;;;;;;;6182394;28;20502;-62
2022/01/19 05:28:44;;;;;;;50.35;18.27;;;;;;;;;;6189368;28;20092;-62
2022/01/19 05:31:45;;;;;;;54.30;19.20;;;;;;;;;;6180519;28;20047;-62
2022/01/19 05:34:46;;;;;;;65.05;22.95;;;;;;;;;;6176080;28;20057;-62
2022/01/19 05:37:47;;;;;;;60.95;21.33;;;;;;;;;;6183673;28;20148;-62
2022/01/19 05:40:47;;;;;;;60.88;19.17;;;;;;;;;;6183728;28;20054;-62
2022/01/19 05:43:48;;;;;;;54.13;18.45;;;;;;;;;;6182343;28;20108;-62
2022/01/19 05:46:49;;;;;;;54.67;18.20;;;;;;;;;;6182889;28;20038;-63
2022/01/19 05:49:49;;;;;;;60.28;18.85;;;;;;;;;;6184526;28;20129;-63
2022/01/19 05:52:51;;;;;;;61.13;19.58;;;;;;;;;;6182160;28;20478;-63
2022/01/19 05:55:52;;;;;;;51.30;19.03;;;;;;;;;;6186328;28;20085;-62
2022/01/19 05:58:52;;;;;;;72.38;20.70;;;;;;;;;;6178073;28;20061;-62
2022/01/19 06:01:54;;;;;;;58.30;19.20;;;;;;;;;;6177464;28;20122;-62
2022/01/19 06:04:54;;;;;;;66.15;20.10;;;;;;;;;;6181902;28;20050;-61
2022/01/19 06:08:11;;;;;;;56.70;20.52;;;;;;;;;;6182251;28;20046;-62
2022/01/19 06:11:12;;;;;;;59.15;20.35;;;;;;;;;;6179098;28;20082;-61
2022/01/19 06:14:13;;;;;;;67.30;21.08;;;;;;;;;;6179033;28;20047;-61
2022/01/19 06:17:14;;;;;;;61.80;18.25;;;;;;;;;;6178820;28;20142;-61
2022/01/19 06:20:15;;;;;;;64.93;19.73;;;;;;;;;;6189773;28;20042;-61
2022/01/19 06:23:16;;;;;;;67.53;22.23;;;;;;;;;;6191251;28;20483;-61
2022/01/19 06:26:17;;;;;;;78.10;24.45;;;;;;;;;;6185697;28;20093;-61
2022/01/19 06:29:17;;;;;;;67.88;22.17;;;;;;;;;;6178681;28;20133;-60
2022/01/19 06:32:18;;;;;;;64.72;21.95;;;;;;;;;;6182577;28;20065;-60
2022/01/19 06:35:19;;;;;;;54.72;19.88;;;;;;;;;;6190245;28;20096;-66
2022/01/19 06:38:21;;;;;;;59.50;19.27;;;;;;;;;;6182486;28;20054;-61
2022/01/19 06:41:22;;;;;;;66.65;20.90;;;;;;;;;;6183137;28;20100;-60
2022/01/19 06:44:23;;;;;;;60.67;20.92;;;;;;;;;;6181531;28;20132;-62
2022/01/19 06:47:24;;;;;;;58.50;19.85;;;;;;;;;;6179450;28;20042;-60
2022/01/19 06:50:25;;;;;;;63.70;20.30;;;;;;;;;;6178595;28;20047;-62
2022/01/19 06:53:26;;;;;;;63.95;21.30;;;;;;;;;;6183900;28;20053;-60
2022/01/19 06:56:27;;;;;;;59.17;20.25;;;;;;;;;;6182851;28;20145;-61
2022/01/19 06:59:28;;;;;;;71.47;22.13;;;;;;;;;;6188219;28;20042;-59
2022/01/19 07:02:29;;;;;;;61.85;21.23;;;;;;;;;;6183939;28;20054;-60
2022/01/19 07:05:29;;;;;;;66.28;23.15;;;;;;;;;;6187706;28;20185;-60
2022/01/19 07:08:30;;;;;;;64.80;25.85;;;;;;;;;;6194486;28;20466;-60
2022/01/19 07:11:31;;;;;;;65.97;21.48;;;;;;;;;;6194099;28;20051;-60
2022/01/19 07:14:31;;;;;;;79.43;33.20;;;;;;;;;;6194808;28;20445;-59
2022/01/19 07:17:32;;;;;;;62.50;23.27;;;;;;;;;;6194803;28;20034;-59
2022/01/19 07:20:33;;;;;;;64.97;19.95;;;;;;;;;;6195184;28;20074;-59
2022/01/19 07:23:33;;;;;;;53.22;18.60;;;;;;;;;;6194851;28;20057;-60
2022/01/19 07:26:34;;;;;;;53.10;20.15;;;;;;;;;;6194376;28;20054;-60
2022/01/19 07:29:35;;;;;;;53.20;18.98;;;;;;;;;;6195869;28;20118;-59
2022/01/19 07:32:37;;;;;;;50.05;18.73;;;;;;;;;;6191844;28;20081;-59
2022/01/19 07:35:38;;;;;;;58.33;19.25;;;;;;;;;;6195291;28;20038;-60
2022/01/19 07:38:39;;;;;;;65.30;19.50;;;;;;;;;;6195131;28;20571;-59
2022/01/19 07:41:40;;;;;;;57.65;18.80;;;;;;;;;;6194347;28;20050;-60
2022/01/19 07:44:40;;;;;;;57.20;20.60;;;;;;;;;;6194428;28;20042;-60
2022/01/19 07:47:41;;;;;;;65.15;23.52;;;;;;;;;;6195660;28;20078;-60
2022/01/19 07:50:42;;;;;;;53.42;17.95;;;;;;;;;;6192762;28;20418;-60
2022/01/19 07:53:43;;;;;;;49.03;18.90;;;;;;;;;;6193095;28;20134;-60
2022/01/19 07:56:44;;;;;;;55.85;18.65;;;;;;;;;;6193186;28;20046;-62
2022/01/19 07:59:44;;;;;;;50.28;17.05;;;;;;;;;;6192035;28;20122;-60
2022/01/19 08:02:45;;;;;;;43.40;17.95;;;;;;;;;;6191354;28;20049;-60
2022/01/19 08:05:46;;;;;;;54.38;19.67;;;;;;;;;;6193230;28;20138;-60
2022/01/19 08:08:47;;;;;;;52.55;17.60;;;;;;;;;;6195694;28;20053;-58
2022/01/19 08:11:48;;;;;;;44.22;16.27;;;;;;;;;;6193959;28;20506;-61
2022/01/19 08:14:49;;;;;;;53.67;19.52;;;;;;;;;;6194208;28;20077;-60
2022/01/19 08:17:49;;;;;;;44.25;15.65;;;;;;;;;;6190576;28;20076;-60
2022/01/19 08:20:50;;;;;;;43.97;14.85;;;;;;;;;;6192237;28;20059;-60
2022/01/19 08:23:51;;;;;;;43.58;15.43;;;;;;;;;;6192441;28;20038;-60
2022/01/19 08:26:54;;;;;;;52.05;19.33;;;;;;;;;;6183817;28;20042;-60
2022/01/19 08:29:55;;;;;;;43.45;16.73;;;;;;;;;;6184778;28;20136;-59
2022/01/19 08:32:55;;;;;;;45.88;18.92;;;;;;;;;;6189883;28;20050;-60
2022/01/19 08:35:56;;;;;;;39.72;15.15;;;;;;;;;;6185794;28;20501;-60
2022/01/19 08:38:57;;;;;;;41.70;16.25;;;;;;;;;;6186341;28;20097;-60
2022/01/19 08:41:58;;;;;;;37.85;14.48;;;;;;;;;;6188136;28;20482;-60
2022/01/19 08:45:04;;;;;;;49.65;18.98;;;;;;;;;;6184746;28;20145;-60
2022/01/19 08:48:05;;;;;;;35.78;15.02;;;;;;;;;;6182465;28;20034;-60
2022/01/19 08:51:06;;;;;;;40.42;15.38;;;;;;;;;;6186544;28;20070;-61
2022/01/19 08:54:07;;;;;;;38.45;14.35;;;;;;;;;;6193271;28;20500;-60
2022/01/19 08:57:08;;;;;;;36.63;14.13;;;;;;;;;;6187792;28;20046;-60
2022/01/19 09:00:12;;;;;;;43.55;14.98;;;;;;;;;;6186041;28;20128;-62
2022/01/19 09:03:15;;;;;;;38.40;13.90;;;;;;;;;;6184813;28;20194;-60
2022/01/19 09:06:16;;;;;;;35.65;13.23;;;;;;;;;;6180963;28;20046;-59
2022/01/19 09:09:16;;;;;;;40.83;14.07;;;;;;;;;;6184312;28;20084;-60
2022/01/19 09:12:17;;;;;;;34.95;13.85;;;;;;;;;;6188787;28;20034;-61
2022/01/19 09:15:18;;;;;;;31.42;12.75;;;;;;;;;;6192082;28;20085;-60
2022/01/19 09:18:19;;;;;;;28.25;12.40;;;;;;;;;;6190203;28;20054;-60
2022/01/19 09:21:19;;;;;;;34.78;12.27;;;;;;;;;;6189616;28;20290;-61
2022/01/19 09:24:20;;;;;;;30.98;12.45;;;;;;;;;;6191783;28;20094;-61
2022/01/19 09:27:21;;;;;;;37.55;13.23;;;;;;;;;;6188054;28;20053;-60
2022/01/19 09:30:24;;;;;;;38.72;14.30;;;;;;;;;;6192444;28;20093;-61
2022/01/19 09:33:25;;;;;;;;;;;;;;;;;;6188048;28;20094;-60
2022/01/19 09:36:32;;;;;;;30.38;14.30;;;;;;;;;;6181823;28;19933;-61
2022/01/19 09:39:33;;;;;;;35.63;15.35;;;;;;;;;;6184607;28;20476;-61
2022/01/19 09:42:34;;;;;;;31.30;12.00;;;;;;;;;;6182502;28;20145;-61
2022/01/19 09:45:35;;;;;;;25.98;11.38;;;;;;;;;;6180605;28;20054;-61
2022/01/19 09:48:36;;;;;;;29.58;11.27;;;;;;;;;;6185210;28;20137;-63
2022/01/19 09:51:40;;;;;;;26.13;10.82;;;;;;;;;;6183408;28;20085;-60
2022/01/19 09:54:41;;;;;;;27.88;11.18;;;;;;;;;;6181690;28;20062;-61
2022/01/19 09:57:42;;;;;;;32.08;10.80;;;;;;;;;;6180451;28;20077;-61
2022/01/19 10:00:42;;;;;;;28.48;10.98;;;;;;;;;;6183524;28;20050;-61
2022/01/19 10:03:44;;;;;;;25.33;10.85;;;;;;;;;;6180820;28;20145;-61
2022/01/19 10:06:45;;;;;;;29.03;11.10;;;;;;;;;;6181684;28;20077;-61
2022/01/19 10:09:56;;;;;;;24.75;10.45;;;;;;;;;;6180934;28;20105;-60
2022/01/19 10:17:06;;;;;;;25.53;10.53;;;;;;;;;;6184887;28;20077;-61
2022/01/19 10:19:45;;;;;;;26.45;9.57;;;;;;;;;;6185288;28;20299;-61
2022/01/19 10:22:46;;;;;;;26.02;10.15;;;;;;;;;;6193520;28;20042;-61
2022/01/19 10:25:49;;;;;;;25.80;10.45;;;;;;;;;;6173938;28;20751;-61
2022/01/19 10:29:10;;;;;;;27.23;11.02;;;;;;;;;;6175826;28;20557;-60
2022/01/19 10:32:10;;;;;;;25.40;10.38;;;;;;;;;;6198503;28;20173;-61
2022/01/19 10:35:27;;;;;;;27.00;10.70;;;;;;;;;;6191739;28;20411;-61
2022/01/19 10:38:29;;;;;;;29.38;13.95;;;;;;;;;;6187829;28;20050;-60
2022/01/19 10:41:29;;;;;;;32.35;12.20;;;;;;;;;;6187400;28;20050;-59
2022/01/19 10:44:34;;;;;;;36.88;12.93;;;;;;;;;;6188954;28;20170;-59
2022/01/19 10:47:48;;;;;;;19.23;9.45;;;;;;;;;;6188306;28;20077;-59
2022/01/19 10:50:49;;;;;;;26.40;12.32;;;;;;;;;;6185731;28;20046;-62
2022/01/19 10:54:19;;;;;;;23.95;10.45;;;;;;;;;;6188660;28;20046;-60
2022/01/19 10:57:19;;;;;;;26.55;11.05;;;;;;;;;;6183980;28;20055;-61
2022/01/19 11:00:28;;;;;;;22.92;10.05;;;;;;;;;;6186268;28;20050;-58
2022/01/19 11:03:29;;;;;;;21.98;11.30;;;;;;;;;;6188309;28;20042;-59
2022/01/19 11:06:30;;;;;;;25.03;9.70;;;;;;;;;;6187592;28;20473;-60
2022/01/19 11:09:34;;;;;;;28.48;9.50;;;;;;;;;;6188805;28;20073;-60
2022/01/19 11:12:56;;;;;;;21.40;9.63;;;;;;;;;;6184901;28;20450;-61
2022/01/19 11:15:58;;;;;;;49.30;17.58;;;;;;;;;;6184958;28;20185;-59
2022/01/19 11:18:59;;;;;;;22.85;11.05;;;;;;;;;;6187837;28;20081;-59
2022/01/19 11:22:12;;;;;;;30.33;11.98;;;;;;;;;;6186162;28;20425;-59
2022/01/19 11:25:38;;;;;;;24.95;11.25;;;;;;;;;;6188134;28;20085;-59
2022/01/19 11:28:44;;;;;;;21.02;9.45;;;;;;;;;;6194145;28;20486;-59
2022/01/19 11:31:46;;;;;;;24.85;10.85;;;;;;;;;;6195032;28;20142;-60
2022/01/19 11:34:50;;;;;;;;;;;;;;;;;;6195397;28;20375;-59
2022/01/19 11:37:53;;;;;;;22.63;9.23;;;;;;;;;;6194738;28;20306;-59
2022/01/19 11:40:54;;;;;;;20.35;8.55;;;;;;;;;;6196610;28;20050;-60
2022/01/19 11:43:58;;;;;;;26.95;10.60;;;;;;;;;;6193945;28;20426;-60
2022/01/19 11:47:16;;;;;;;24.92;10.27;;;;;;;;;;6195564;28;20104;-61
2022/01/19 11:50:20;;;;;;;26.58;10.05;;;;;;;;;;6196724;28;20053;-59
2022/01/19 11:53:21;;;;;;;26.23;11.18;;;;;;;;;;6192588;28;20097;-59
2022/01/19 11:56:22;;;;;;;24.92;10.45;;;;;;;;;;6192846;28;20132;-59
2022/01/19 11:59:25;;;;;;;27.17;10.07;;;;;;;;;;6193293;28;20042;-60
2022/01/19 12:02:32;;;;;;;30.75;10.95;;;;;;;;;;6192640;28;20435;-62
2022/01/19 12:05:40;;;;;;;20.00;9.55;;;;;;;;;;6195873;28;20047;-59
2022/01/19 12:08:41;;;;;;;31.02;12.48;;;;;;;;;;6194703;28;20047;-59
2022/01/19 12:11:52;;;;;;;45.40;15.88;;;;;;;;;;6193488;28;20196;-62
2022/01/19 12:14:56;;;;;;;29.08;10.88;;;;;;;;;;6185875;28;20047;-60
2022/01/19 12:18:07;;;;;;;23.95;10.85;;;;;;;;;;6185088;28;20057;-61
2022/01/19 12:21:11;;;;;;;26.77;10.95;;;;;;;;;;6183989;28;20054;-60
2022/01/19 12:24:29;;;;;;;27.90;13.68;;;;;;;;;;6189100;28;20070;-59
2022/01/19 12:27:32;;;;;;;27.45;10.60;;;;;;;;;;6183582;28;20058;-60
2022/01/19 12:30:33;;;;;;;32.05;11.82;;;;;;;;;;6184568;28;20171;-61
2022/01/19 12:33:34;;;;;;;27.40;11.82;;;;;;;;;;6182624;28;20065;-60
2022/01/19 12:36:56;;;;;;;36.00;14.13;;;;;;;;;;6186348;28;20058;-59
2022/01/19 12:39:57;;;;;;;29.98;11.98;;;;;;;;;;6194911;28;20047;-61
2022/01/19 12:43:01;;;;;;;28.95;11.88;;;;;;;;;;6184975;28;20137;-61
2022/01/19 12:46:05;;;;;;;27.00;11.75;;;;;;;;;;6185869;28;20057;-60
2022/01/19 12:49:26;;;;;;;30.10;11.50;;;;;;;;;;6183900;28;20056;-62
2022/01/19 12:52:29;;;;;;;25.92;10.02;;;;;;;;;;6180678;28;20081;-60
2022/01/19 12:55:34;;;;;;;26.77;11.80;;;;;;;;;;6208664;28;20058;-60
2022/01/19 12:58:37;;;;;;;33.20;12.27;;;;;;;;;;6191126;28;20470;-61
2022/01/19 13:01:38;;;;;;;24.48;10.20;;;;;;;;;;6193568;28;20062;-61
2022/01/19 13:04:40;;;;;;;28.17;11.13;;;;;;;;;;6193645;28;20417;-60
2022/01/19 13:07:44;;;;;;;34.40;14.75;;;;;;;;;;6192204;28;20047;-60
2022/01/19 13:10:49;;;;;;;36.97;17.25;;;;;;;;;;6184496;28;20088;-60
2022/01/19 13:14:00;;;;;;;24.02;10.50;;;;;;;;;;6183602;28;20125;-61
2022/01/19 13:17:01;;;;;;;27.95;11.73;;;;;;;;;;6182168;28;20050;-60
2022/01/19 13:20:15;;;;;;;21.27;10.60;;;;;;;;;;6192477;28;20121;-61
2022/01/19 13:23:16;;;;;;;25.80;10.85;;;;;;;;;;6193833;28;20070;-60
2022/01/19 13:26:17;;;;;;;27.13;10.10;;;;;;;;;;6192086;28;20046;-60
2022/01/19 13:29:25;;;;;;;23.40;9.75;;;;;;;;;;6191151;28;20046;-60
2022/01/19 13:32:26;;;;;;;23.13;9.80;;;;;;;;;;6194072;28;20053;-61
2022/01/19 13:35:27;;;;;;;23.20;10.57;;;;;;;;;;6180115;28;20406;-61
2022/01/19 13:38:28;;;;;;;23.92;10.00;;;;;;;;;;6176207;28;20137;-61
2022/01/19 13:41:29;;;;;;;33.90;13.35;;;;;;;;;;6192381;28;20125;-60
2022/01/19 13:44:35;;;;;;;24.85;10.50;;;;;;;;;;6185857;28;20054;-61
2022/01/19 13:51:16;;;;;;;24.15;10.45;;;;;;;;;;6164279;28;20093;-60
2022/01/19 13:54:16;;;;;;;;;;;;;;;;;;6184592;28;20166;-60
2022/01/19 13:57:29;;;;;;;28.52;10.32;;;;;;;;;;6179548;28;20375;-61
2022/01/19 14:00:30;;;;;;;24.30;9.93;;;;;;;;;;6180487;28;20057;-60
2022/01/19 14:03:50;;;;;;;199.38;58.72;;;;;;;;;;6184146;28;20078;-60
2022/01/19 14:06:52;;;;;;;76.13;26.50;;;;;;;;;;6181010;28;20624;-61
2022/01/19 14:09:52;;;;;;;41.70;16.50;;;;;;;;;;6180682;28;20144;-60
2022/01/19 14:12:53;;;;;;;27.10;12.43;;;;;;;;;;6184680;28;20146;-61
2022/01/19 14:16:17;;;;;;;111.38;47.42;;;;;;;;;;6181400;28;20053;-61
2022/01/19 14:19:28;;;;;;;70.70;33.03;;;;;;;;;;6180206;28;20058;-58
2022/01/19 14:22:32;;;;;;;49.60;20.33;;;;;;;;;;6180889;28;20057;-61
2022/01/19 14:25:34;;;;;;;62.55;25.67;;;;;;;;;;6182529;28;20097;-61
2022/01/19 14:28:36;;;;;;;77.63;36.35;;;;;;;;;;6183888;28;20049;-60
2022/01/19 14:32:06;;;;;;;51.60;23.42;;;;;;;;;;6181136;28;20050;-61
2022/01/19 14:35:27;;;;;;;70.22;35.00;;;;;;;;;;6172624;28;20493;-59
2022/01/19 14:38:37;;;;;;;44.20;20.65;;;;;;;;;;6178307;28;20058;-57
2022/01/19 14:41:38;;;;;;;46.13;18.58;;;;;;;;;;6182802;28;20050;-61
2022/01/19 14:44:43;;;;;;;59.58;28.92;;;;;;;;;;6181561;28;20835;-59
2022/01/19 14:47:44;;;;;;;39.33;16.08;;;;;;;;;;6188196;28;20057;-61
2022/01/19 14:50:45;;;;;;;32.78;14.75;;;;;;;;;;6190222;28;20137;-61
2022/01/19 14:53:47;;;;;;;33.38;15.52;;;;;;;;;;6188048;28;20074;-60
2022/01/19 14:56:47;;;;;;;38.85;17.42;;;;;;;;;;6187737;28;20100;-59
2022/01/19 14:59:48;;;;;;;33.17;15.35;;;;;;;;;;6186911;28;20070;-57
2022/01/19 15:02:56;;;;;;;35.72;14.52;;;;;;;;;;6189258;28;20054;-58
2022/01/19 15:05:57;;;;;;;32.28;13.98;;;;;;;;;;6187507;28;20405;-59
2022/01/19 15:08:58;;;;;;;40.17;15.82;;;;;;;;;;6185886;28;20046;-61
2022/01/19 15:11:59;;;;;;;37.05;14.82;;;;;;;;;;6182879;28;20047;-59
2022/01/19 15:15:01;;;;;;;57.80;19.58;;;;;;;;;;6185341;28;20410;-59
2022/01/19 15:18:04;;;;;;;37.67;15.25;;;;;;;;;;6194314;28;20050;-61
2022/01/19 15:21:05;;;;;;;37.35;15.13;;;;;;;;;;6191335;28;20081;-60
2022/01/19 15:24:06;;;;;;;34.42;14.18;;;;;;;;;;6192200;28;20056;-65
2022/01/19 15:27:07;;;;;;;36.70;14.07;;;;;;;;;;6191174;28;20541;-60
2022/01/19 15:30:09;;;;;;;32.25;13.07;;;;;;;;;;6190618;28;20150;-60
2022/01/19 15:33:10;;;;;;;30.50;12.65;;;;;;;;;;6187400;28;20112;-61
2022/01/19 15:36:11;;;;;;;33.23;14.43;;;;;;;;;;6190367;28;20060;-61
2022/01/19 15:39:13;;;;;;;35.65;12.25;;;;;;;;;;6199293;28;20081;-63
2022/01/19 15:42:14;;;;;;;38.10;13.70;;;;;;;;;;6192104;28;20141;-61
2022/01/19 15:45:15;;;;;;;33.75;14.32;;;;;;;;;;6184218;28;20494;-61
2022/01/19 15:48:17;;;;;;;34.72;14.05;;;;;;;;;;6195669;28;20074;-61
2022/01/19 15:51:18;;;;;;;41.50;15.43;;;;;;;;;;6189266;28;20144;-62
2022/01/19 15:54:19;;;;;;;37.85;15.02;;;;;;;;;;6190704;28;20053;-62
2022/01/19 15:57:20;;;;;;;42.75;17.13;;;;;;;;;;6197259;28;20060;-60
2022/01/19 16:00:20;;;;;;;45.72;16.33;;;;;;;;;;6185701;28;20102;-62
2022/01/19 16:03:22;;;;;;;47.88;17.33;;;;;;;;;;6184551;28;20050;-62
2022/01/19 16:06:23;;;;;;;45.80;17.35;;;;;;;;;;6190276;28;20414;-62
2022/01/19 16:09:24;;;;;;;57.45;24.98;;;;;;;;;;6188867;28;20054;-62
2022/01/19 16:12:24;;;;;;;49.67;17.42;;;;;;;;;;6199285;28;20397;-63
2022/01/19 16:15:26;;;;;;;53.80;18.42;;;;;;;;;;6185449;28;20045;-61
2022/01/19 16:18:26;;;;;;;47.03;18.58;;;;;;;;;;6192348;28;20045;-61
2022/01/19 16:21:27;;;;;;;55.25;21.77;;;;;;;;;;6193697;28;20146;-62
2022/01/19 16:27:47;;;;;;;56.25;21.42;;;;;;;;;;6192673;28;20140;-62
2022/01/19 16:30:50;;;;;;;45.17;18.70;;;;;;;;;;6186729;28;20050;-61
2022/01/19 16:33:52;;;;;;;57.03;20.35;;;;;;;;;;6191593;28;20120;-61
2022/01/19 16:36:53;;;;;;;52.13;20.30;;;;;;;;;;6196304;28;20054;-59
2022/01/19 16:39:54;;;;;;;56.95;19.35;;;;;;;;;;6188081;28;20057;-58
2022/01/19 16:42:56;;;;;;;53.47;20.60;;;;;;;;;;6189090;28;20053;-61
2022/01/19 16:46:00;;;;;;;54.58;19.02;;;;;;;;;;6187776;28;21464;-62
2022/01/19 16:49:05;;;;;;;56.92;20.70;;;;;;;;;;6187526;28;20184;-57
2022/01/19 16:52:06;;;;;;;53.13;19.55;;;;;;;;;;6194394;28;20610;-57
2022/01/19 16:55:07;;;;;;;53.80;20.58;;;;;;;;;;6184003;28;20055;-54
2022/01/19 16:58:09;;;;;;;55.38;20.15;;;;;;;;;;6188501;28;20152;-55
2022/01/19 17:01:11;;;;;;;53.50;17.70;;;;;;;;;;6187055;28;20053;-61
2022/01/19 17:04:14;;;;;;;51.92;19.17;;;;;;;;;;6185686;28;20129;-61
2022/01/19 17:07:14;;;;;;;47.40;17.90;;;;;;;;;;6201641;28;20065;-61
2022/01/19 17:10:17;;;;;;;41.40;16.45;;;;;;;;;;6185557;28;20070;-61
2022/01/19 17:13:39;;;;;;;50.83;17.52;;;;;;;;;;6186774;28;20050;-60
2022/01/19 17:16:46;;;;;;;43.65;16.67;;;;;;;;;;6196185;28;20111;-62
2022/01/19 17:19:47;;;;;;;48.10;20.08;;;;;;;;;;6185163;28;20643;-60
2022/01/19 17:22:48;;;;;;;43.05;16.92;;;;;;;;;;6190439;28;20132;-58
2022/01/19 17:25:49;;;;;;;74.20;28.85;;;;;;;;;;6189030;28;20129;-61
2022/01/19 17:28:50;;;;;;;62.15;26.13;;;;;;;;;;6183373;28;20078;-62
2022/01/19 17:31:50;;;;;;;54.97;21.92;;;;;;;;;;6185313;28;20678;-60
2022/01/19 17:34:55;;;;;;;40.40;17.45;;;;;;;;;;6178351;28;20169;-62
2022/01/19 17:37:56;;;;;;;38.25;15.85;;;;;;;;;;6177498;28;20249;-60
2022/01/19 17:40:57;;;;;;;43.38;16.40;;;;;;;;;;6183393;28;20795;-62
2022/01/19 17:43:58;;;;;;;45.80;14.98;;;;;;;;;;6183905;28;20047;-61
2022/01/19 17:53:36;;;;;;;50.25;18.73;;;;;;;;;;6174797;28;20088;-60
2022/01/19 17:56:38;;;;;;;45.28;17.92;;;;;;;;;;6177427;28;20059;-60
2022/01/19 17:59:39;;;;;;;51.13;19.45;;;;;;;;;;6177381;28;20070;-61
2022/01/19 18:02:40;;;;;;;59.53;22.60;;;;;;;;;;6178143;28;20058;-61
2022/01/19 18:05:41;;;;;;;51.20;21.02;;;;;;;;;;6179076;28;20169;-60
2022/01/19 18:08:41;;;;;;;61.50;21.83;;;;;;;;;;6173043;28;20080;-63
2022/01/19 18:11:43;;;;;;;58.65;19.65;;;;;;;;;;6177097;28;20050;-61
2022/01/19 18:14:44;;;;;;;63.77;21.27;;;;;;;;;;6167798;28;20078;-62
2022/01/19 18:17:47;;;;;;;54.10;20.02;;;;;;;;;;6174291;28;20814;-62
2022/01/19 18:20:48;;;;;;;;;;;;;;;;;;6176935;28;20050;-62
2022/01/19 18:23:51;;;;;;;53.25;22.02;;;;;;;;;;6175261;28;19921;-63
2022/01/19 18:26:52;;;;;;;50.80;21.00;;;;;;;;;;6173476;28;20065;-63
2022/01/19 18:29:53;;;;;;;59.67;20.83;;;;;;;;;;6175471;28;20073;-59
2022/01/19 18:32:53;;;;;;;48.13;20.38;;;;;;;;;;6174915;28;20125;-61
2022/01/19 18:35:55;;;;;;;50.78;18.27;;;;;;;;;;6179418;28;20458;-63
2022/01/19 18:38:56;;;;;;;45.88;17.67;;;;;;;;;;6176939;28;20054;-61
2022/01/19 18:41:57;;;;;;;44.75;16.55;;;;;;;;;;6169167;28;20058;-61
2022/01/19 18:44:58;;;;;;;42.85;15.75;;;;;;;;;;6177228;28;20088;-61
2022/01/19 18:47:58;;;;;;;49.72;21.27;;;;;;;;;;6179882;28;20054;-69
2022/01/19 18:50:59;;;;;;;46.10;18.40;;;;;;;;;;6173168;28;20556;-63
2022/01/19 18:54:00;;;;;;;194.57;52.28;;;;;;;;;;6173401;28;20043;-64
2022/01/19 18:57:02;;;;;;;371.05;116.35;;;;;;;;;;6175390;28;20287;-62
2022/01/19 19:00:06;;;;;;;521.40;153.98;;;;;;;;;;6174763;28;20485;-61
2022/01/19 19:03:07;;;;;;;466.70;118.18;;;;;;;;;;6177539;28;20061;-60
2022/01/19 19:06:09;;;;;;;152.45;44.67;;;;;;;;;;6172229;28;20055;-60
2022/01/19 19:09:20;;;;;;;51.13;18.30;;;;;;;;;;6173524;28;20054;-62
2022/01/19 19:12:21;;;;;;;62.35;18.98;;;;;;;;;;6173230;28;20054;-61
2022/01/19 19:15:24;;;;;;;42.75;15.23;;;;;;;;;;6174142;28;20046;-61
2022/01/19 19:18:26;;;;;;;47.45;14.57;;;;;;;;;;6176984;28;20047;-60
2022/01/19 19:21:27;;;;;;;42.17;15.95;;;;;;;;;;6168794;28;20057;-62
2022/01/19 19:24:28;;;;;;;52.47;16.20;;;;;;;;;;6171416;28;20101;-62